Time;durP1;ratioP1;P1;durP2;ratioP2;P2;SDS_P1;SDS_P2;PMS_P1;PMS_P2;Temp;Humidity;BMP_temperature;BMP_pressure;BME280_temperature;BME280_humidity;BME280_pressure;Samples;Min_cycle;Max_cycle;Signal;HPM_P1;HPM_P2
2024/04/03 00:00:26;;;;;;;0.20;0.20;;;;;;;;;;5064053;28;20056;-83
2024/04/03 00:02:52;;;;;;;0.40;0.40;;;;;;;;;;5062186;28;20032;-87
2024/04/03 00:05:17;;;;;;;1.42;1.27;;;;;;;;;;5060691;28;20059;-85
2024/04/03 00:07:43;;;;;;;0.30;0.30;;;;;;;;;;5062224;28;20109;-85
2024/04/03 00:10:09;;;;;;;0.60;0.60;;;;;;;;;;5056688;28;20061;-83
2024/04/03 00:12:34;;;;;;;0.85;0.85;;;;;;;;;;5059945;28;20083;-84
2024/04/03 00:15:01;;;;;;;0.30;0.30;;;;;;;;;;5064710;28;20495;-83
2024/04/03 00:17:26;;;;;;;0.30;0.30;;;;;;;;;;5063267;28;20107;-84
2024/04/03 00:19:51;;;;;;;0.30;0.30;;;;;;;;;;5060317;28;20063;-83
2024/04/03 00:22:17;;;;;;;0.80;0.80;;;;;;;;;;5064897;28;20041;-82
2024/04/03 00:24:42;;;;;;;0.38;0.38;;;;;;;;;;5061111;28;21964;-84
2024/04/03 00:27:08;;;;;;;0.30;0.30;;;;;;;;;;5064088;28;20547;-83
2024/04/03 00:29:33;;;;;;;0.22;0.22;;;;;;;;;;5065362;28;20121;-83
2024/04/03 00:31:58;;;;;;;0.55;0.55;;;;;;;;;;5060382;28;20037;-84
2024/04/03 00:34:24;;;;;;;0.40;0.40;;;;;;;;;;5062300;28;20472;-81
2024/04/03 00:36:51;;;;;;;0.30;0.30;;;;;;;;;;5064865;28;20032;-81
2024/04/03 00:39:16;;;;;;;0.57;0.57;;;;;;;;;;5060591;28;20047;-78
2024/04/03 00:41:41;;;;;;;1.23;1.13;;;;;;;;;;5061871;28;20037;-83
2024/04/03 00:44:07;;;;;;;0.73;0.50;;;;;;;;;;5065439;28;20028;-82
2024/04/03 00:46:34;;;;;;;1.55;1.15;;;;;;;;;;5063667;28;20131;-85
2024/04/03 00:48:59;;;;;;;0.52;0.52;;;;;;;;;;5059191;28;20036;-83
2024/04/03 00:51:25;;;;;;;0.20;0.20;;;;;;;;;;5061904;28;20788;-83
2024/04/03 00:53:50;;;;;;;5.65;0.65;;;;;;;;;;5061228;28;20020;-83
2024/04/03 00:56:16;;;;;;;0.30;0.30;;;;;;;;;;5062016;28;20039;-82
2024/04/03 00:58:41;;;;;;;2.20;0.70;;;;;;;;;;5062321;28;20048;-82
2024/04/03 01:01:07;;;;;;;0.40;0.40;;;;;;;;;;5056227;28;20843;-82
2024/04/03 01:03:32;;;;;;;2.67;1.23;;;;;;;;;;5060802;28;20056;-85
2024/04/03 01:06:00;;;;;;;4.95;1.45;;;;;;;;;;5061538;28;20066;-85
2024/04/03 01:08:25;;;;;;;0.60;0.60;;;;;;;;;;5062701;28;20060;-85
2024/04/03 01:10:51;;;;;;;0.65;0.52;;;;;;;;;;5064104;28;20545;-85
2024/04/03 01:13:16;;;;;;;1.92;1.55;;;;;;;;;;5061801;28;20041;-84
2024/04/03 01:15:42;;;;;;;0.82;0.82;;;;;;;;;;5065904;28;20110;-83
2024/04/03 01:18:07;;;;;;;2.40;1.52;;;;;;;;;;5065532;28;20464;-81
2024/04/03 01:20:32;;;;;;;0.30;0.30;;;;;;;;;;5068521;28;20063;-84
2024/04/03 01:22:58;;;;;;;1.52;1.42;;;;;;;;;;5069728;28;20567;-87
2024/04/03 01:25:23;;;;;;;0.20;0.20;;;;;;;;;;5071404;28;20068;-80
2024/04/03 01:27:48;;;;;;;0.30;0.30;;;;;;;;;;5072411;28;20052;-87
2024/04/03 01:30:14;;;;;;;1.30;0.93;;;;;;;;;;5070100;28;20072;-83
2024/04/03 01:32:40;;;;;;;0.35;0.35;;;;;;;;;;5068246;28;20181;-85
2024/04/03 01:35:06;;;;;;;0.30;0.30;;;;;;;;;;5065081;28;20040;-84
2024/04/03 01:37:31;;;;;;;1.98;1.38;;;;;;;;;;5063858;28;20578;-85
2024/04/03 01:39:57;;;;;;;1.35;1.25;;;;;;;;;;5062869;28;20059;-85
2024/04/03 01:42:25;;;;;;;0.75;0.70;;;;;;;;;;5061660;28;20127;-85
2024/04/03 01:44:51;;;;;;;0.70;0.70;;;;;;;;;;5063367;28;20024;-80
2024/04/03 01:47:17;;;;;;;0.90;0.80;;;;;;;;;;5061270;28;20506;-82
2024/04/03 01:49:42;;;;;;;0.40;0.40;;;;;;;;;;5066184;28;20040;-84
2024/04/03 01:52:08;;;;;;;8.35;1.27;;;;;;;;;;5063711;28;20766;-83
2024/04/03 01:54:33;;;;;;;0.52;0.52;;;;;;;;;;5064048;28;20062;-83
2024/04/03 01:56:58;;;;;;;0.55;0.55;;;;;;;;;;5065404;28;20745;-85
2024/04/03 01:59:24;;;;;;;0.25;0.25;;;;;;;;;;5063602;28;20046;-81
2024/04/03 02:01:49;;;;;;;0.32;0.32;;;;;;;;;;5063344;28;20032;-86
2024/04/03 02:04:14;;;;;;;0.20;0.20;;;;;;;;;;5064513;28;20041;-87
2024/04/03 02:06:40;;;;;;;2.33;2.22;;;;;;;;;;5063738;28;20127;-80
2024/04/03 02:09:07;;;;;;;7.43;1.10;;;;;;;;;;5061661;28;20053;-87
2024/04/03 02:11:32;;;;;;;3.75;0.98;;;;;;;;;;5065618;28;21170;-88
2024/04/03 02:13:58;;;;;;;0.20;0.20;;;;;;;;;;5064159;28;20408;-85
2024/04/03 02:16:24;;;;;;;1.02;1.02;;;;;;;;;;5062627;28;20047;-83
2024/04/03 02:18:50;;;;;;;0.93;0.85;;;;;;;;;;5069037;28;20061;-85
2024/04/03 02:21:15;;;;;;;2.28;1.65;;;;;;;;;;5068437;28;20055;-86
2024/04/03 02:23:41;;;;;;;0.20;0.20;;;;;;;;;;5066082;28;20123;-83
2024/04/03 02:26:06;;;;;;;0.90;0.65;;;;;;;;;;5072769;28;20028;-83
2024/04/03 02:28:31;;;;;;;0.55;0.55;;;;;;;;;;5069709;28;20041;-85
2024/04/03 02:31:00;;;;;;;0.20;0.20;;;;;;;;;;5065374;28;20198;-83
2024/04/03 02:33:26;;;;;;;0.55;0.55;;;;;;;;;;5069014;28;20037;-85
2024/04/03 02:35:52;;;;;;;0.40;0.40;;;;;;;;;;5064062;28;20122;-80
2024/04/03 02:38:17;;;;;;;0.30;0.30;;;;;;;;;;5061565;28;20429;-81
2024/04/03 02:40:42;;;;;;;0.63;0.43;;;;;;;;;;5058892;28;20032;-84
2024/04/03 02:43:08;;;;;;;0.85;0.70;;;;;;;;;;5067726;28;20037;-84
2024/04/03 02:45:33;;;;;;;0.95;0.85;;;;;;;;;;5071677;28;20382;-85
2024/04/03 02:47:59;;;;;;;0.20;0.20;;;;;;;;;;5086078;28;20025;-77
2024/04/03 02:50:24;;;;;;;0.20;0.20;;;;;;;;;;5083565;28;20063;-79
2024/04/03 02:52:51;;;;;;;0.20;0.20;;;;;;;;;;5085130;28;20041;-82
2024/04/03 02:55:17;;;;;;;0.30;0.30;;;;;;;;;;5081646;28;20028;-79
2024/04/03 02:57:42;;;;;;;0.73;0.73;;;;;;;;;;5082929;28;20086;-83
2024/04/03 03:00:07;;;;;;;0.40;0.40;;;;;;;;;;5083778;28;20045;-78
2024/04/03 03:02:33;;;;;;;0.32;0.32;;;;;;;;;;5081070;28;20024;-82
2024/04/03 03:04:58;;;;;;;0.98;0.65;;;;;;;;;;5084217;28;20024;-81
2024/04/03 03:07:24;;;;;;;1.67;1.25;;;;;;;;;;5080147;28;20036;-80
2024/04/03 03:09:49;;;;;;;0.30;0.30;;;;;;;;;;5082863;28;21264;-85
2024/04/03 03:12:14;;;;;;;0.88;0.68;;;;;;;;;;5080903;28;20121;-77
2024/04/03 03:14:40;;;;;;;4.00;0.82;;;;;;;;;;5085710;28;20088;-81
2024/04/03 03:17:05;;;;;;;0.65;0.57;;;;;;;;;;5067594;28;20068;-86
2024/04/03 03:19:30;;;;;;;0.38;0.38;;;;;;;;;;5065162;28;20180;-83
2024/04/03 03:21:56;;;;;;;0.30;0.30;;;;;;;;;;5063561;28;20047;-83
2024/04/03 03:24:23;;;;;;;0.30;0.30;;;;;;;;;;5059986;28;20488;-84
2024/04/03 03:26:48;;;;;;;0.30;0.30;;;;;;;;;;5065681;28;20024;-86
2024/04/03 03:29:14;;;;;;;0.30;0.30;;;;;;;;;;5064503;28;20086;-84
2024/04/03 03:31:39;;;;;;;0.30;0.30;;;;;;;;;;5062369;28;21146;-86
2024/04/03 03:34:04;;;;;;;0.60;0.50;;;;;;;;;;5066288;28;20037;-85
2024/04/03 03:36:30;;;;;;;0.30;0.30;;;;;;;;;;5062667;28;20044;-84
2024/04/03 03:38:55;;;;;;;0.57;0.50;;;;;;;;;;5062616;28;20043;-83
2024/04/03 03:41:20;;;;;;;0.40;0.40;;;;;;;;;;5060646;28;20029;-85
2024/04/03 03:43:46;;;;;;;0.40;0.40;;;;;;;;;;5064820;28;20037;-86
2024/04/03 03:46:11;;;;;;;0.28;0.28;;;;;;;;;;5059907;28;20499;-84
2024/04/03 03:54:05;;;;;;;1.98;1.85;;;;;;;;;;5061306;28;20048;-85
2024/04/03 03:56:30;;;;;;;0.20;0.20;;;;;;;;;;5061439;28;20024;-84
2024/04/03 03:58:55;;;;;;;0.82;0.82;;;;;;;;;;5065138;28;20478;-82
2024/04/03 04:01:21;;;;;;;0.52;0.52;;;;;;;;;;5062004;28;20062;-83
2024/04/03 04:03:46;;;;;;;0.22;0.22;;;;;;;;;;5063248;28;20033;-83
2024/04/03 04:06:11;;;;;;;1.02;0.70;;;;;;;;;;5061422;28;20041;-82
2024/04/03 04:08:37;;;;;;;0.52;0.52;;;;;;;;;;5057959;28;20080;-80
2024/04/03 04:11:03;;;;;;;0.30;0.30;;;;;;;;;;5061469;28;20048;-82
2024/04/03 04:13:29;;;;;;;1.65;1.55;;;;;;;;;;5060093;28;20397;-83
2024/04/03 04:15:57;;;;;;;0.20;0.20;;;;;;;;;;5059705;28;20052;-82
2024/04/03 04:18:22;;;;;;;0.30;0.30;;;;;;;;;;5057921;28;20141;-85
2024/04/03 04:20:58;;;;;;;0.20;0.20;;;;;;;;;;5059393;28;20749;-83
2024/04/03 04:23:23;;;;;;;1.05;0.95;;;;;;;;;;5058297;28;20024;-83
2024/04/03 04:25:56;;;;;;;0.20;0.20;;;;;;;;;;5060534;28;20036;-84
2024/04/03 04:28:22;;;;;;;0.60;0.60;;;;;;;;;;5062223;28;20040;-80
2024/04/03 04:30:55;;;;;;;0.47;0.47;;;;;;;;;;5063737;28;20048;-87
2024/04/03 04:33:21;;;;;;;0.63;0.63;;;;;;;;;;5061853;28;20127;-86
2024/04/03 04:35:51;;;;;;;0.20;0.20;;;;;;;;;;5060699;28;20739;-84
2024/04/03 04:38:16;;;;;;;0.20;0.20;;;;;;;;;;5061480;28;20033;-86
2024/04/03 04:40:51;;;;;;;0.30;0.30;;;;;;;;;;5060995;28;20047;-84
2024/04/03 04:43:17;;;;;;;0.20;0.20;;;;;;;;;;5057158;28;20812;-84
2024/04/03 04:45:42;;;;;;;0.63;0.63;;;;;;;;;;5063173;28;20053;-84
2024/04/03 04:48:07;;;;;;;0.20;0.20;;;;;;;;;;5072624;28;20044;-82
2024/04/03 04:50:33;;;;;;;0.90;0.50;;;;;;;;;;5081546;28;20048;-81
2024/04/03 04:52:59;;;;;;;0.30;0.30;;;;;;;;;;5069200;28;20108;-84
2024/04/03 04:55:25;;;;;;;0.30;0.30;;;;;;;;;;5047361;28;20426;-83
2024/04/03 04:57:50;;;;;;;1.27;1.08;;;;;;;;;;5057114;28;20057;-81
2024/04/03 05:00:16;;;;;;;0.20;0.20;;;;;;;;;;5052466;28;20041;-78
2024/04/03 05:02:42;;;;;;;0.45;0.45;;;;;;;;;;5053881;28;20469;-73
2024/04/03 05:05:07;;;;;;;2.17;0.57;;;;;;;;;;5051240;28;20039;-72
2024/04/03 05:07:33;;;;;;;0.65;0.60;;;;;;;;;;5058812;28;20053;-73
2024/04/03 05:09:59;;;;;;;0.20;0.20;;;;;;;;;;5062379;28;20052;-75
2024/04/03 05:12:25;;;;;;;0.20;0.20;;;;;;;;;;5058080;28;20749;-74
2024/04/03 05:14:50;;;;;;;0.30;0.30;;;;;;;;;;5060636;28;20170;-74
2024/04/03 05:17:16;;;;;;;1.17;1.08;;;;;;;;;;5062987;28;20032;-73
2024/04/03 05:19:41;;;;;;;1.17;1.08;;;;;;;;;;5059194;28;20376;-73
2024/04/03 05:22:10;;;;;;;2.20;1.00;;;;;;;;;;5059697;28;20036;-75
2024/04/03 05:24:36;;;;;;;0.50;0.50;;;;;;;;;;5063273;28;20173;-74
2024/04/03 05:27:01;;;;;;;0.50;0.50;;;;;;;;;;5063234;28;20119;-76
2024/04/03 05:29:27;;;;;;;1.42;0.80;;;;;;;;;;5068128;28;20025;-75
2024/04/03 05:31:52;;;;;;;1.20;1.08;;;;;;;;;;5067109;28;20685;-74
2024/04/03 05:34:18;;;;;;;0.60;0.50;;;;;;;;;;5066410;28;20131;-76
2024/04/03 05:36:43;;;;;;;1.38;1.27;;;;;;;;;;5060315;28;20041;-75
2024/04/03 05:39:09;;;;;;;0.40;0.30;;;;;;;;;;5062125;28;20551;-76
2024/04/03 05:41:34;;;;;;;0.82;0.77;;;;;;;;;;5063232;28;20662;-78
2024/04/03 05:43:59;;;;;;;0.40;0.40;;;;;;;;;;5065507;28;20037;-76
2024/04/03 05:46:25;;;;;;;0.73;0.73;;;;;;;;;;5057210;28;20680;-77
2024/04/03 05:48:50;;;;;;;0.30;0.30;;;;;;;;;;5065891;28;20044;-78
2024/04/03 05:51:15;;;;;;;0.82;0.55;;;;;;;;;;5058667;28;20519;-77
2024/04/03 05:53:41;;;;;;;1.02;0.63;;;;;;;;;;5065065;28;20024;-77
2024/04/03 05:56:07;;;;;;;0.45;0.40;;;;;;;;;;5064461;28;20028;-77
2024/04/03 05:58:34;;;;;;;0.98;0.90;;;;;;;;;;5061332;28;20045;-78
2024/04/03 06:01:03;;;;;;;2.67;0.90;;;;;;;;;;5063957;28;20037;-76
2024/04/03 06:03:29;;;;;;;0.60;0.60;;;;;;;;;;5066843;28;20043;-77
2024/04/03 06:05:55;;;;;;;1.10;0.98;;;;;;;;;;5067994;28;20399;-77
2024/04/03 06:08:20;;;;;;;1.20;1.08;;;;;;;;;;5067829;28;20412;-78
2024/04/03 06:10:46;;;;;;;1.40;1.15;;;;;;;;;;5068086;28;20035;-76
2024/04/03 06:13:11;;;;;;;0.40;0.40;;;;;;;;;;5068267;28;20044;-77
2024/04/03 06:15:37;;;;;;;1.20;1.10;;;;;;;;;;5066292;28;20396;-77
2024/04/03 06:18:02;;;;;;;1.10;0.60;;;;;;;;;;5068048;28;20480;-78
2024/04/03 06:20:28;;;;;;;1.67;1.35;;;;;;;;;;5067740;28;20044;-76
2024/04/03 06:22:53;;;;;;;2.25;2.05;;;;;;;;;;5068808;28;20036;-77
2024/04/03 06:25:19;;;;;;;1.95;1.02;;;;;;;;;;5067760;28;20032;-78
2024/04/03 06:27:45;;;;;;;2.75;2.50;;;;;;;;;;5068072;28;20602;-77
2024/04/03 06:30:11;;;;;;;2.50;2.10;;;;;;;;;;5067636;28;20041;-76
2024/04/03 06:32:36;;;;;;;5.22;1.48;;;;;;;;;;5066764;28;20111;-76
2024/04/03 06:35:02;;;;;;;1.40;1.30;;;;;;;;;;5065511;28;20041;-77
2024/04/03 06:37:27;;;;;;;1.40;1.13;;;;;;;;;;5065975;28;20060;-76
2024/04/03 06:39:52;;;;;;;1.42;1.17;;;;;;;;;;5065978;28;20045;-77
2024/04/03 06:42:18;;;;;;;1.20;1.10;;;;;;;;;;5066699;28;20392;-75
2024/04/03 06:44:43;;;;;;;1.50;1.23;;;;;;;;;;5067943;28;20031;-77
2024/04/03 06:47:09;;;;;;;0.55;0.38;;;;;;;;;;5066607;28;20108;-77
2024/04/03 06:49:34;;;;;;;1.80;1.70;;;;;;;;;;5066744;28;20116;-78
2024/04/03 06:52:00;;;;;;;0.88;0.70;;;;;;;;;;5067903;28;20044;-77
2024/04/03 06:54:26;;;;;;;0.85;0.77;;;;;;;;;;5067266;28;20049;-76
2024/04/03 06:56:51;;;;;;;7.13;1.42;;;;;;;;;;5044138;28;20044;-75
2024/04/03 06:59:17;;;;;;;0.95;0.88;;;;;;;;;;5066477;28;20465;-76
2024/04/03 07:01:42;;;;;;;1.52;1.42;;;;;;;;;;5064565;28;20086;-77
2024/04/03 07:04:08;;;;;;;1.70;1.48;;;;;;;;;;5067020;28;20102;-75
2024/04/03 07:06:33;;;;;;;0.75;0.75;;;;;;;;;;5067603;28;20051;-76
2024/04/03 07:08:59;;;;;;;1.02;0.70;;;;;;;;;;5066806;28;20512;-76
2024/04/03 07:11:24;;;;;;;0.47;0.47;;;;;;;;;;5066827;28;20032;-75
2024/04/03 07:13:49;;;;;;;0.88;0.68;;;;;;;;;;5066939;28;20063;-76
2024/04/03 07:16:15;;;;;;;11.32;7.00;;;;;;;;;;5067122;28;20036;-77
2024/04/03 07:18:40;;;;;;;0.65;0.40;;;;;;;;;;5066840;28;20163;-76
2024/04/03 07:21:06;;;;;;;0.73;0.73;;;;;;;;;;5065506;28;20051;-76
2024/04/03 07:23:31;;;;;;;1.10;1.00;;;;;;;;;;5067316;28;20724;-76
2024/04/03 07:25:57;;;;;;;0.65;0.65;;;;;;;;;;5066784;28;20481;-76
2024/04/03 07:28:23;;;;;;;1.17;0.88;;;;;;;;;;5064878;28;20055;-75
2024/04/03 07:30:48;;;;;;;1.25;1.08;;;;;;;;;;5065727;28;20044;-76
2024/04/03 07:33:14;;;;;;;1.27;1.17;;;;;;;;;;5065121;28;20511;-77
2024/04/03 07:35:40;;;;;;;10.95;1.70;;;;;;;;;;5067005;28;20466;-76
2024/04/03 07:38:06;;;;;;;1.02;0.70;;;;;;;;;;5066331;28;20116;-77
2024/04/03 07:40:31;;;;;;;0.40;0.40;;;;;;;;;;5062065;28;20140;-75
2024/04/03 07:42:57;;;;;;;1.35;1.25;;;;;;;;;;5066344;28;20094;-78
2024/04/03 07:45:22;;;;;;;0.30;0.30;;;;;;;;;;5066235;28;20036;-76
2024/04/03 07:47:48;;;;;;;0.82;0.80;;;;;;;;;;5060291;28;20032;-77
2024/04/03 07:50:15;;;;;;;0.60;0.60;;;;;;;;;;5065299;28;20123;-77
2024/04/03 07:52:40;;;;;;;5.57;1.17;;;;;;;;;;5064480;28;20120;-76
2024/04/03 07:55:06;;;;;;;2.50;1.50;;;;;;;;;;5064544;28;20171;-76
2024/04/03 07:57:31;;;;;;;1.05;0.85;;;;;;;;;;5062324;28;20601;-77
2024/04/03 07:59:57;;;;;;;0.60;0.60;;;;;;;;;;5062121;28;20033;-76
2024/04/03 08:02:22;;;;;;;1.88;1.13;;;;;;;;;;5064891;28;20107;-76
2024/04/03 08:04:47;;;;;;;0.77;0.63;;;;;;;;;;5062089;28;20024;-76
2024/04/03 08:07:13;;;;;;;1.65;1.55;;;;;;;;;;5065817;28;20109;-76
2024/04/03 08:09:38;;;;;;;0.60;0.60;;;;;;;;;;5060328;28;20053;-77
2024/04/03 08:12:04;;;;;;;1.15;0.65;;;;;;;;;;5062951;28;20418;-77
2024/04/03 08:14:29;;;;;;;9.75;1.60;;;;;;;;;;5062802;28;20016;-76
2024/04/03 08:16:54;;;;;;;1.17;0.88;;;;;;;;;;5064022;28;20577;-75
2024/04/03 08:19:20;;;;;;;2.25;2.00;;;;;;;;;;5064322;28;20136;-75
2024/04/03 08:21:46;;;;;;;1.30;1.20;;;;;;;;;;5066133;28;20075;-78
2024/04/03 08:24:11;;;;;;;1.35;1.08;;;;;;;;;;5065023;28;20033;-76
2024/04/03 08:26:37;;;;;;;2.10;1.63;;;;;;;;;;5066298;28;20023;-77
2024/04/03 08:29:02;;;;;;;0.98;0.93;;;;;;;;;;5065183;28;20115;-75
2024/04/03 08:31:28;;;;;;;1.63;1.20;;;;;;;;;;5063525;28;20050;-77
2024/04/03 08:33:53;;;;;;;1.98;1.17;;;;;;;;;;5064286;28;20071;-76
2024/04/03 08:36:19;;;;;;;1.75;1.60;;;;;;;;;;5065402;28;20036;-77
2024/04/03 08:38:44;;;;;;;0.30;0.30;;;;;;;;;;5066453;28;20056;-75
2024/04/03 08:41:10;;;;;;;0.93;0.73;;;;;;;;;;5063328;28;20036;-75
2024/04/03 08:43:35;;;;;;;0.32;0.32;;;;;;;;;;5065158;28;20045;-75
2024/04/03 08:46:01;;;;;;;1.50;1.35;;;;;;;;;;5065137;28;20059;-75
2024/04/03 08:48:27;;;;;;;0.68;0.52;;;;;;;;;;5063864;28;20052;-76
2024/04/03 08:50:53;;;;;;;0.20;0.20;;;;;;;;;;5065145;28;20012;-76
2024/04/03 08:53:22;;;;;;;0.68;0.52;;;;;;;;;;5064468;28;20039;-77
2024/04/03 08:55:48;;;;;;;0.52;0.43;;;;;;;;;;5062936;28;20464;-76
2024/04/03 08:58:14;;;;;;;3.20;1.60;;;;;;;;;;5064717;28;20041;-77
2024/04/03 09:00:40;;;;;;;0.20;0.20;;;;;;;;;;5064821;28;20045;-77
2024/04/03 09:03:06;;;;;;;1.75;1.65;;;;;;;;;;5064359;28;20070;-75
2024/04/03 09:05:31;;;;;;;1.02;0.73;;;;;;;;;;5065660;28;20399;-76
2024/04/03 09:07:58;;;;;;;2.38;2.17;;;;;;;;;;5063266;28;20068;-76
2024/04/03 09:10:30;;;;;;;0.32;0.28;;;;;;;;;;5063850;28;20119;-75
2024/04/03 09:12:56;;;;;;;2.00;1.50;;;;;;;;;;5061677;28;20043;-76
2024/04/03 09:15:22;;;;;;;0.93;0.82;;;;;;;;;;5063076;28;20040;-76
2024/04/03 09:17:48;;;;;;;1.05;0.68;;;;;;;;;;5059486;28;20028;-77
2024/04/03 09:20:22;;;;;;;1.67;1.10;;;;;;;;;;5066023;28;20128;-77
2024/04/03 09:22:48;;;;;;;0.45;0.40;;;;;;;;;;5056966;28;20049;-76
2024/04/03 09:25:13;;;;;;;0.20;0.20;;;;;;;;;;5064414;28;20135;-75
2024/04/03 09:27:39;;;;;;;1.80;1.65;;;;;;;;;;5061268;28;20048;-76
2024/04/03 09:30:06;;;;;;;0.98;0.85;;;;;;;;;;5063867;28;20400;-77
2024/04/03 09:32:32;;;;;;;0.20;0.20;;;;;;;;;;5064318;28;20024;-76
2024/04/03 09:34:58;;;;;;;0.38;0.38;;;;;;;;;;5065945;28;20039;-75
2024/04/03 09:37:23;;;;;;;0.20;0.20;;;;;;;;;;5070215;28;20443;-76
2024/04/03 09:39:48;;;;;;;0.60;0.60;;;;;;;;;;5064362;28;20053;-77
2024/04/03 09:42:20;;;;;;;1.33;1.17;;;;;;;;;;5068910;28;20137;-77
2024/04/03 09:44:47;;;;;;;1.30;0.85;;;;;;;;;;5061197;28;20062;-78
2024/04/03 09:47:15;;;;;;;1.38;1.27;;;;;;;;;;5066828;28;20082;-77
2024/04/03 09:49:41;;;;;;;0.32;0.32;;;;;;;;;;5068828;28;20345;-75
2024/04/03 09:52:08;;;;;;;1.77;1.65;;;;;;;;;;5067058;28;20056;-77
2024/04/03 09:54:34;;;;;;;1.23;0.52;;;;;;;;;;5063782;28;20145;-75
2024/04/03 09:56:59;;;;;;;0.65;0.40;;;;;;;;;;5068132;28;20682;-78
2024/04/03 09:59:26;;;;;;;0.20;0.20;;;;;;;;;;5069267;28;20040;-79
2024/04/03 10:01:52;;;;;;;0.43;0.30;;;;;;;;;;5068938;28;20481;-77
2024/04/03 10:04:17;;;;;;;1.05;0.95;;;;;;;;;;5066552;28;20041;-76
2024/04/03 10:06:43;;;;;;;0.20;0.20;;;;;;;;;;5068885;28;20381;-76
2024/04/03 10:09:24;;;;;;;0.28;0.25;;;;;;;;;;5068128;28;20114;-75
2024/04/03 10:11:53;;;;;;;0.38;0.38;;;;;;;;;;5060688;28;20029;-79
2024/04/03 10:14:32;;;;;;;0.70;0.40;;;;;;;;;;5068481;28;20027;-76
2024/04/03 10:16:58;;;;;;;0.47;0.45;;;;;;;;;;5062551;28;20139;-77
2024/04/03 10:19:29;;;;;;;0.20;0.20;;;;;;;;;;5066503;28;20498;-76
2024/04/03 10:21:56;;;;;;;1.40;1.30;;;;;;;;;;5066749;28;20508;-77
2024/04/03 10:24:22;;;;;;;0.20;0.20;;;;;;;;;;5067301;28;20126;-77
2024/04/03 10:26:47;;;;;;;1.38;0.85;;;;;;;;;;5067574;28;20040;-77
2024/04/03 10:29:13;;;;;;;0.20;0.20;;;;;;;;;;5068118;28;20111;-76
2024/04/03 10:31:38;;;;;;;0.25;0.25;;;;;;;;;;5065128;28;20045;-77
2024/04/03 10:34:03;;;;;;;0.20;0.20;;;;;;;;;;5066297;28;20029;-77
2024/04/03 10:36:29;;;;;;;1.40;0.55;;;;;;;;;;5067628;28;20036;-77
2024/04/03 10:38:54;;;;;;;0.20;0.20;;;;;;;;;;5067840;28;20115;-77
2024/04/03 10:41:20;;;;;;;0.20;0.20;;;;;;;;;;5065955;28;20024;-76
2024/04/03 10:43:45;;;;;;;1.35;0.82;;;;;;;;;;5067845;28;20131;-77
2024/04/03 10:46:13;;;;;;;0.20;0.20;;;;;;;;;;5066851;28;20403;-76
2024/04/03 10:48:40;;;;;;;0.43;0.43;;;;;;;;;;5065739;28;20654;-77
2024/04/03 10:51:05;;;;;;;0.38;0.35;;;;;;;;;;5067628;28;20044;-77
2024/04/03 10:53:33;;;;;;;0.20;0.20;;;;;;;;;;5065385;28;20020;-75
2024/04/03 10:55:58;;;;;;;0.40;0.40;;;;;;;;;;5066342;28;20072;-78
2024/04/03 10:58:24;;;;;;;0.52;0.52;;;;;;;;;;5067394;28;20076;-78
2024/04/03 11:00:50;;;;;;;0.20;0.20;;;;;;;;;;5066246;28;20048;-76
2024/04/03 11:03:15;;;;;;;0.20;0.20;;;;;;;;;;5067401;28;20043;-78
2024/04/03 11:05:41;;;;;;;0.20;0.20;;;;;;;;;;5066195;28;20405;-77
2024/04/03 11:08:09;;;;;;;0.35;0.30;;;;;;;;;;5066708;28;20090;-76
2024/04/03 11:10:35;;;;;;;0.20;0.20;;;;;;;;;;5067872;28;20046;-76
2024/04/03 11:13:10;;;;;;;0.20;0.20;;;;;;;;;;5067515;28;20711;-77
2024/04/03 11:15:36;;;;;;;0.20;0.20;;;;;;;;;;5065823;28;20138;-77
2024/04/03 11:18:01;;;;;;;0.10;0.10;;;;;;;;;;5067450;28;20045;-77
2024/04/03 11:20:27;;;;;;;0.88;0.63;;;;;;;;;;5069028;28;20391;-78
2024/04/03 11:22:56;;;;;;;0.35;0.30;;;;;;;;;;5065833;28;20496;-78
2024/04/03 11:25:22;;;;;;;0.17;0.17;;;;;;;;;;5065057;28;20044;-78
2024/04/03 11:27:47;;;;;;;0.20;0.20;;;;;;;;;;5067011;28;20044;-77
2024/04/03 11:30:13;;;;;;;0.88;0.35;;;;;;;;;;5065852;28;20044;-76
2024/04/03 11:32:38;;;;;;;0.55;0.55;;;;;;;;;;5065977;28;20764;-77
2024/04/03 11:35:07;;;;;;;0.30;0.30;;;;;;;;;;5065248;28;20089;-78
2024/04/03 11:37:34;;;;;;;0.40;0.40;;;;;;;;;;5064595;28;20451;-77
2024/04/03 11:40:00;;;;;;;0.10;0.10;;;;;;;;;;5063210;28;20055;-78
2024/04/03 11:42:25;;;;;;;0.20;0.20;;;;;;;;;;5065108;28;20045;-76
2024/04/03 11:44:51;;;;;;;0.65;0.52;;;;;;;;;;5064632;28;20446;-77
2024/04/03 11:47:16;;;;;;;0.35;0.35;;;;;;;;;;5065410;28;20035;-78
2024/04/03 11:49:42;;;;;;;0.20;0.20;;;;;;;;;;5065906;28;20112;-77
2024/04/03 11:52:08;;;;;;;0.93;0.93;;;;;;;;;;5065121;28;20071;-77
2024/04/03 11:54:34;;;;;;;0.82;0.82;;;;;;;;;;5065703;28;20488;-78
2024/04/03 11:57:00;;;;;;;0.20;0.20;;;;;;;;;;5067254;28;20168;-76
2024/04/03 11:59:26;;;;;;;0.25;0.25;;;;;;;;;;5066277;28;20063;-76
2024/04/03 12:01:51;;;;;;;1.15;1.05;;;;;;;;;;5063324;28;20136;-75
2024/04/03 12:04:17;;;;;;;0.20;0.20;;;;;;;;;;5065575;28;20044;-77
2024/04/03 12:06:42;;;;;;;0.30;0.30;;;;;;;;;;5065760;28;20040;-76
2024/04/03 12:09:08;;;;;;;0.50;0.50;;;;;;;;;;5065517;28;20052;-77
2024/04/03 12:11:33;;;;;;;0.20;0.20;;;;;;;;;;5063243;28;20487;-76
2024/04/03 12:14:00;;;;;;;0.20;0.20;;;;;;;;;;5059609;28;20033;-75
2024/04/03 12:16:30;;;;;;;0.50;0.45;;;;;;;;;;5066141;28;20127;-76
2024/04/03 12:19:26;;;;;;;1.65;0.57;;;;;;;;;;5064166;28;20064;-76
2024/04/03 12:21:55;;;;;;;0.20;0.20;;;;;;;;;;5066184;28;20818;-75
2024/04/03 12:24:21;;;;;;;0.82;0.82;;;;;;;;;;5065821;28;20785;-76
2024/04/03 12:26:47;;;;;;;0.35;0.35;;;;;;;;;;5064214;28;20020;-77
2024/04/03 12:29:13;;;;;;;0.32;0.32;;;;;;;;;;5064912;28;20024;-78
2024/04/03 12:31:39;;;;;;;3.13;1.33;;;;;;;;;;5060209;28;20127;-76
2024/04/03 12:34:06;;;;;;;0.32;0.32;;;;;;;;;;5064341;28;20289;-79
2024/04/03 12:36:31;;;;;;;0.30;0.30;;;;;;;;;;5065535;28;20488;-77
2024/04/03 12:38:57;;;;;;;0.43;0.43;;;;;;;;;;5064778;28;20016;-78
2024/04/03 12:41:22;;;;;;;0.30;0.30;;;;;;;;;;5063995;28;20017;-77
2024/04/03 12:43:48;;;;;;;0.40;0.40;;;;;;;;;;5059676;28;20484;-77
2024/04/03 12:46:14;;;;;;;0.30;0.30;;;;;;;;;;5064524;28;20047;-76
2024/04/03 12:48:40;;;;;;;1.08;0.63;;;;;;;;;;5065749;28;20040;-78
2024/04/03 12:51:06;;;;;;;0.20;0.20;;;;;;;;;;5074980;28;20044;-78
2024/04/03 12:53:32;;;;;;;0.20;0.20;;;;;;;;;;5095212;28;20142;-79
2024/04/03 12:55:57;;;;;;;0.28;0.28;;;;;;;;;;5067083;28;20028;-76
2024/04/03 12:58:23;;;;;;;0.20;0.20;;;;;;;;;;5084380;28;20116;-76
2024/04/03 13:00:48;;;;;;;0.20;0.20;;;;;;;;;;5092662;28;20118;-78
2024/04/03 13:03:14;;;;;;;0.65;0.50;;;;;;;;;;5080573;28;20507;-77
2024/04/03 13:05:39;;;;;;;1.05;0.52;;;;;;;;;;5063130;28;20019;-77
2024/04/03 13:08:05;;;;;;;0.15;0.15;;;;;;;;;;5085954;28;20116;-76
2024/04/03 13:10:32;;;;;;;1.27;0.90;;;;;;;;;;5085086;28;20032;-74
2024/04/03 13:13:04;;;;;;;0.20;0.20;;;;;;;;;;5068391;28;20120;-77
2024/04/03 13:15:29;;;;;;;0.28;0.25;;;;;;;;;;5080644;28;20768;-77
2024/04/03 13:17:54;;;;;;;1.48;0.75;;;;;;;;;;5072852;28;20028;-77
2024/04/03 13:20:20;;;;;;;0.93;0.77;;;;;;;;;;5071570;28;20036;-77
2024/04/03 13:22:46;;;;;;;0.45;0.30;;;;;;;;;;5085253;28;20084;-77
2024/04/03 13:25:11;;;;;;;0.55;0.55;;;;;;;;;;5084851;28;20039;-76
2024/04/03 13:27:37;;;;;;;0.15;0.15;;;;;;;;;;5081239;28;20048;-77
2024/04/03 13:30:03;;;;;;;0.20;0.20;;;;;;;;;;5083785;28;20048;-78
2024/04/03 13:32:28;;;;;;;0.20;0.20;;;;;;;;;;5088538;28;20073;-76
2024/04/03 13:34:54;;;;;;;0.28;0.28;;;;;;;;;;5083277;28;20642;-76
2024/04/03 13:37:20;;;;;;;0.10;0.10;;;;;;;;;;5068064;28;20092;-76
2024/04/03 13:39:45;;;;;;;0.20;0.20;;;;;;;;;;5083671;28;20589;-77
2024/04/03 13:42:11;;;;;;;0.28;0.20;;;;;;;;;;5079805;28;20043;-77
2024/04/03 13:44:36;;;;;;;0.17;0.17;;;;;;;;;;5078570;28;20122;-77
2024/04/03 13:47:02;;;;;;;0.90;0.90;;;;;;;;;;5090280;28;20124;-76
2024/04/03 13:49:28;;;;;;;0.60;0.55;;;;;;;;;;5084895;28;20127;-75
2024/04/03 13:51:54;;;;;;;0.40;0.30;;;;;;;;;;5082654;28;20143;-77
2024/04/03 13:54:19;;;;;;;0.20;0.20;;;;;;;;;;5084616;28;20148;-77
2024/04/03 13:56:45;;;;;;;0.20;0.20;;;;;;;;;;5084853;28;20021;-77
2024/04/03 13:59:10;;;;;;;0.75;0.55;;;;;;;;;;5083941;28;20500;-76
2024/04/03 14:01:37;;;;;;;0.20;0.20;;;;;;;;;;5066492;28;20089;-77
2024/04/03 14:04:02;;;;;;;0.47;0.47;;;;;;;;;;5085197;28;20053;-78
2024/04/03 14:06:28;;;;;;;0.20;0.20;;;;;;;;;;5084607;28;20040;-76
2024/04/03 14:08:53;;;;;;;0.95;0.50;;;;;;;;;;5069506;28;20052;-77
2024/04/03 14:11:22;;;;;;;0.20;0.20;;;;;;;;;;5089288;28;20448;-79
2024/04/03 14:13:49;;;;;;;0.20;0.20;;;;;;;;;;5083221;28;20036;-77
2024/04/03 14:16:18;;;;;;;0.20;0.20;;;;;;;;;;5084017;28;20044;-77
2024/04/03 14:18:44;;;;;;;0.20;0.20;;;;;;;;;;5078516;28;20052;-76
2024/04/03 14:21:09;;;;;;;0.10;0.10;;;;;;;;;;5082067;28;20040;-75
2024/04/03 14:23:35;;;;;;;0.20;0.20;;;;;;;;;;5076740;28;20032;-77
2024/04/03 14:26:01;;;;;;;0.20;0.20;;;;;;;;;;5082450;28;20052;-75
2024/04/03 14:28:27;;;;;;;0.40;0.40;;;;;;;;;;5081538;28;20075;-76
2024/04/03 14:30:54;;;;;;;0.10;0.10;;;;;;;;;;5087296;28;20079;-78
2024/04/03 14:33:19;;;;;;;0.40;0.40;;;;;;;;;;5085672;28;20098;-76
2024/04/03 14:35:45;;;;;;;0.85;0.40;;;;;;;;;;5080196;28;21830;-77
2024/04/03 14:38:10;;;;;;;0.68;0.68;;;;;;;;;;5069989;28;20028;-77
2024/04/03 14:40:35;;;;;;;0.20;0.20;;;;;;;;;;5081696;28;20491;-77